sensor_id;sensor_type;location;lat;lon;timestamp;pressure;altitude;pressure_sealevel;temperature;humidity
6038;BME280;3047;42.600;23.470;2023-02-16T00:01:19;94210.63;;;1.28;100.00
6038;BME280;3047;42.600;23.470;2023-02-16T00:03:46;94209.00;;;1.29;100.00
6038;BME280;3047;42.600;23.470;2023-02-16T00:06:14;94211.47;;;1.29;100.00
6038;BME280;3047;42.600;23.470;2023-02-16T00:08:45;94209.03;;;1.30;100.00
6038;BME280;3047;42.600;23.470;2023-02-16T00:11:18;94212.28;;;1.28;100.00
6038;BME280;3047;42.600;23.470;2023-02-16T00:14:06;94149.41;;;0.67;100.00
6038;BME280;3047;42.600;23.470;2023-02-16T00:16:33;94206.09;;;1.12;100.00
6038;BME280;3047;42.600;23.470;2023-02-16T00:19:00;94208.66;;;1.15;100.00
6038;BME280;3047;42.600;23.470;2023-02-16T00:21:28;94207.88;;;1.17;100.00
6038;BME280;3047;42.600;23.470;2023-02-16T00:23:55;94204.63;;;1.20;100.00
6038;BME280;3047;42.600;23.470;2023-02-16T00:26:23;94203.78;;;1.19;100.00
6038;BME280;3047;42.600;23.470;2023-02-16T00:28:52;94204.66;;;1.21;100.00
6038;BME280;3047;42.600;23.470;2023-02-16T00:31:21;94195.78;;;1.31;100.00
6038;BME280;3047;42.600;23.470;2023-02-16T00:33:51;94167.94;;;1.13;100.00
6038;BME280;3047;42.600;23.470;2023-02-16T00:36:18;94184.19;;;1.32;100.00
6038;BME280;3047;42.600;23.470;2023-02-16T00:38:46;94197.44;;;1.31;100.00
6038;BME280;3047;42.600;23.470;2023-02-16T00:41:17;94195.19;;;1.41;100.00
6038;BME280;3047;42.600;23.470;2023-02-16T00:44:03;94178.38;;;1.31;100.00
6038;BME280;3047;42.600;23.470;2023-02-16T00:46:30;94048.75;;;0.53;100.00
6038;BME280;3047;42.600;23.470;2023-02-16T00:48:57;94187.59;;;1.35;100.00
6038;BME280;3047;42.600;23.470;2023-02-16T00:51:24;94209.25;;;1.39;100.00
6038;BME280;3047;42.600;23.470;2023-02-16T00:53:52;94207.59;;;1.40;100.00
6038;BME280;3047;42.600;23.470;2023-02-16T00:56:19;94206.59;;;1.33;100.00
6038;BME280;3047;42.600;23.470;2023-02-16T00:58:48;94201.13;;;1.13;100.00
6038;BME280;3047;42.600;23.470;2023-02-16T01:01:17;94198.03;;;0.89;100.00
6038;BME280;3047;42.600;23.470;2023-02-16T01:03:46;94197.91;;;0.84;100.00
6038;BME280;3047;42.600;23.470;2023-02-16T01:06:13;94170.66;;;0.89;100.00
6038;BME280;3047;42.600;23.470;2023-02-16T01:09:10;94193.44;;;1.03;100.00
6038;BME280;3047;42.600;23.470;2023-02-16T01:11:55;94196.88;;;1.08;100.00
6038;BME280;3047;42.600;23.470;2023-02-16T01:14:23;94185.06;;;1.01;100.00
6038;BME280;3047;42.600;23.470;2023-02-16T01:16:50;94181.19;;;1.10;100.00
6038;BME280;3047;42.600;23.470;2023-02-16T01:19:17;94177.78;;;1.07;100.00
6038;BME280;3047;42.600;23.470;2023-02-16T01:21:44;94173.53;;;1.03;100.00
6038;BME280;3047;42.600;23.470;2023-02-16T01:24:12;94169.09;;;0.92;100.00
6038;BME280;3047;42.600;23.470;2023-02-16T01:26:41;94173.84;;;0.83;100.00
6038;BME280;3047;42.600;23.470;2023-02-16T01:29:13;94171.94;;;0.73;100.00
6038;BME280;3047;42.600;23.470;2023-02-16T01:31:41;94166.41;;;0.85;100.00
6038;BME280;3047;42.600;23.470;2023-02-16T01:34:08;94090.16;;;0.51;100.00
6038;BME280;3047;42.600;23.470;2023-02-16T01:36:36;94170.03;;;0.96;100.00
6038;BME280;3047;42.600;23.470;2023-02-16T01:39:04;94130.22;;;0.63;100.00
6038;BME280;3047;42.600;23.470;2023-02-16T01:41:44;94160.28;;;0.72;100.00
6038;BME280;3047;42.600;23.470;2023-02-16T01:44:21;94153.53;;;0.66;100.00
6038;BME280;3047;42.600;23.470;2023-02-16T01:46:51;94159.31;;;0.65;100.00
6038;BME280;3047;42.600;23.470;2023-02-16T01:49:20;94158.53;;;0.68;100.00
6038;BME280;3047;42.600;23.470;2023-02-16T01:51:52;94156.78;;;0.64;100.00
6038;BME280;3047;42.600;23.470;2023-02-16T01:54:30;94153.34;;;0.59;100.00
6038;BME280;3047;42.600;23.470;2023-02-16T01:57:04;94153.81;;;0.77;100.00
6038;BME280;3047;42.600;23.470;2023-02-16T01:59:39;94151.13;;;0.69;100.00
6038;BME280;3047;42.600;23.470;2023-02-16T02:02:11;94112.53;;;0.51;100.00
6038;BME280;3047;42.600;23.470;2023-02-16T02:04:43;94149.41;;;0.67;100.00
6038;BME280;3047;42.600;23.470;2023-02-16T02:07:34;94157.59;;;0.63;100.00
6038;BME280;3047;42.600;23.470;2023-02-16T02:10:08;94155.94;;;0.63;100.00
6038;BME280;3047;42.600;23.470;2023-02-16T02:12:43;94129.38;;;0.31;100.00
6038;BME280;3047;42.600;23.470;2023-02-16T02:15:14;94135.50;;;0.42;100.00
6038;BME280;3047;42.600;23.470;2023-02-16T02:17:42;94147.91;;;0.42;100.00
6038;BME280;3047;42.600;23.470;2023-02-16T02:20:12;94154.75;;;0.49;100.00
6038;BME280;3047;42.600;23.470;2023-02-16T02:23:20;94146.41;;;0.48;100.00
6038;BME280;3047;42.600;23.470;2023-02-16T02:29:22;94146.16;;;0.38;100.00
6038;BME280;3047;42.600;23.470;2023-02-16T02:31:58;94145.53;;;0.45;100.00
6038;BME280;3047;42.600;23.470;2023-02-16T02:34:36;94142.69;;;0.64;100.00
6038;BME280;3047;42.600;23.470;2023-02-16T02:37:10;94139.84;;;0.51;100.00
6038;BME280;3047;42.600;23.470;2023-02-16T02:39:50;94141.00;;;0.63;100.00
6038;BME280;3047;42.600;23.470;2023-02-16T02:42:27;94138.56;;;0.65;100.00
6038;BME280;3047;42.600;23.470;2023-02-16T02:45:01;94141.25;;;0.72;100.00
6038;BME280;3047;42.600;23.470;2023-02-16T02:47:38;94138.34;;;0.89;100.00
6038;BME280;3047;42.600;23.470;2023-02-16T02:53:33;94117.00;;;0.64;100.00
6038;BME280;3047;42.600;23.470;2023-02-16T02:56:02;94127.78;;;0.64;100.00
6038;BME280;3047;42.600;23.470;2023-02-16T02:58:52;94138.22;;;0.84;100.00
6038;BME280;3047;42.600;23.470;2023-02-16T03:01:44;94112.13;;;0.68;100.00
6038;BME280;3047;42.600;23.470;2023-02-16T03:04:15;94140.66;;;0.81;100.00
6038;BME280;3047;42.600;23.470;2023-02-16T03:06:46;94116.75;;;0.53;100.00
6038;BME280;3047;42.600;23.470;2023-02-16T03:09:14;94145.97;;;0.62;100.00
6038;BME280;3047;42.600;23.470;2023-02-16T03:11:41;94149.06;;;0.53;100.00
6038;BME280;3047;42.600;23.470;2023-02-16T03:14:30;94146.00;;;0.63;100.00
6038;BME280;3047;42.600;23.470;2023-02-16T03:17:01;94121.22;;;0.35;100.00
6038;BME280;3047;42.600;23.470;2023-02-16T03:19:48;94094.03;;;0.09;100.00
6038;BME280;3047;42.600;23.470;2023-02-16T03:22:34;94135.97;;;0.29;100.00
6038;BME280;3047;42.600;23.470;2023-02-16T03:25:22;94149.16;;;0.58;100.00
6038;BME280;3047;42.600;23.470;2023-02-16T03:28:10;94148.06;;;0.48;100.00
6038;BME280;3047;42.600;23.470;2023-02-16T03:30:56;94153.09;;;0.49;100.00
6038;BME280;3047;42.600;23.470;2023-02-16T03:33:27;94143.19;;;0.51;100.00
6038;BME280;3047;42.600;23.470;2023-02-16T03:35:55;94134.66;;;0.41;100.00
6038;BME280;3047;42.600;23.470;2023-02-16T03:38:23;94152.59;;;0.31;100.00
6038;BME280;3047;42.600;23.470;2023-02-16T03:40:51;94103.91;;;0.08;100.00
6038;BME280;3047;42.600;23.470;2023-02-16T03:43:18;94102.13;;;0.02;100.00
6038;BME280;3047;42.600;23.470;2023-02-16T03:45:49;94139.84;;;0.19;100.00
6038;BME280;3047;42.600;23.470;2023-02-16T03:48:16;94140.88;;;0.27;100.00
6038;BME280;3047;42.600;23.470;2023-02-16T03:50:44;94149.97;;;0.27;100.00
6038;BME280;3047;42.600;23.470;2023-02-16T03:53:11;94064.34;;;-0.16;100.00
6038;BME280;3047;42.600;23.470;2023-02-16T03:55:39;94146.00;;;0.03;100.00
6038;BME280;3047;42.600;23.470;2023-02-16T03:58:07;94123.59;;;0.00;100.00
6038;BME280;3047;42.600;23.470;2023-02-16T04:00:35;94143.94;;;0.17;100.00
6038;BME280;3047;42.600;23.470;2023-02-16T04:03:03;93972.69;;;-0.99;100.00
6038;BME280;3047;42.600;23.470;2023-02-16T04:05:30;94139.75;;;0.16;100.00
6038;BME280;3047;42.600;23.470;2023-02-16T04:07:58;94078.91;;;-0.29;100.00
6038;BME280;3047;42.600;23.470;2023-02-16T04:10:25;94140.41;;;0.09;100.00
6038;BME280;3047;42.600;23.470;2023-02-16T04:12:52;94130.63;;;0.15;100.00
6038;BME280;3047;42.600;23.470;2023-02-16T04:15:20;94132.00;;;0.05;100.00
6038;BME280;3047;42.600;23.470;2023-02-16T04:17:47;94114.44;;;-0.31;100.00
6038;BME280;3047;42.600;23.470;2023-02-16T04:20:17;94135.25;;;-0.26;100.00
6038;BME280;3047;42.600;23.470;2023-02-16T04:22:45;94128.47;;;-0.32;100.00
6038;BME280;3047;42.600;23.470;2023-02-16T04:25:14;94096.81;;;-0.40;100.00
6038;BME280;3047;42.600;23.470;2023-02-16T04:27:42;94118.22;;;-0.14;100.00
6038;BME280;3047;42.600;23.470;2023-02-16T04:30:11;94117.88;;;-0.26;100.00
6038;BME280;3047;42.600;23.470;2023-02-16T04:32:38;94075.59;;;-0.58;100.00
6038;BME280;3047;42.600;23.470;2023-02-16T04:35:06;94119.44;;;-0.30;100.00
6038;BME280;3047;42.600;23.470;2023-02-16T04:37:33;94094.50;;;-0.33;100.00
6038;BME280;3047;42.600;23.470;2023-02-16T04:40:00;94055.09;;;-0.52;100.00
6038;BME280;3047;42.600;23.470;2023-02-16T04:42:29;94128.59;;;0.02;100.00
6038;BME280;3047;42.600;23.470;2023-02-16T04:44:55;94128.09;;;0.13;100.00
6038;BME280;3047;42.600;23.470;2023-02-16T04:47:22;94122.28;;;0.13;100.00
6038;BME280;3047;42.600;23.470;2023-02-16T04:49:51;94118.88;;;0.09;100.00
6038;BME280;3047;42.600;23.470;2023-02-16T04:52:18;94124.69;;;0.10;100.00
6038;BME280;3047;42.600;23.470;2023-02-16T04:54:44;94128.97;;;0.15;100.00
6038;BME280;3047;42.600;23.470;2023-02-16T04:57:11;94125.00;;;0.22;100.00
6038;BME280;3047;42.600;23.470;2023-02-16T04:59:40;94130.09;;;0.27;100.00
6038;BME280;3047;42.600;23.470;2023-02-16T05:02:06;94135.44;;;0.40;100.00
6038;BME280;3047;42.600;23.470;2023-02-16T05:04:33;94132.81;;;0.34;100.00
6038;BME280;3047;42.600;23.470;2023-02-16T05:07:00;94135.56;;;0.15;100.00
6038;BME280;3047;42.600;23.470;2023-02-16T05:09:27;94135.50;;;0.12;100.00
6038;BME280;3047;42.600;23.470;2023-02-16T05:11:53;94139.22;;;0.28;100.00
6038;BME280;3047;42.600;23.470;2023-02-16T05:14:39;94139.63;;;0.41;100.00
6038;BME280;3047;42.600;23.470;2023-02-16T05:17:12;94134.00;;;0.48;100.00
6038;BME280;3047;42.600;23.470;2023-02-16T05:19:40;94087.78;;;0.23;100.00
6038;BME280;3047;42.600;23.470;2023-02-16T05:22:07;94139.25;;;0.59;100.00
6038;BME280;3047;42.600;23.470;2023-02-16T05:24:34;94143.31;;;0.56;100.00
6038;BME280;3047;42.600;23.470;2023-02-16T05:27:01;94144.84;;;0.52;100.00
6038;BME280;3047;42.600;23.470;2023-02-16T05:29:28;94141.84;;;0.64;100.00
6038;BME280;3047;42.600;23.470;2023-02-16T05:31:56;94141.81;;;0.62;100.00
6038;BME280;3047;42.600;23.470;2023-02-16T05:34:23;94141.31;;;0.76;100.00
6038;BME280;3047;42.600;23.470;2023-02-16T05:36:50;94112.00;;;0.62;100.00
6038;BME280;3047;42.600;23.470;2023-02-16T05:39:17;94156.75;;;0.95;100.00
6038;BME280;3047;42.600;23.470;2023-02-16T05:41:44;94144.09;;;0.86;100.00
6038;BME280;3047;42.600;23.470;2023-02-16T05:44:11;94144.09;;;0.86;100.00
6038;BME280;3047;42.600;23.470;2023-02-16T05:46:39;94129.72;;;0.74;100.00
6038;BME280;3047;42.600;23.470;2023-02-16T05:49:07;94033.06;;;0.20;100.00
6038;BME280;3047;42.600;23.470;2023-02-16T05:51:35;94128.09;;;0.77;100.00
6038;BME280;3047;42.600;23.470;2023-02-16T05:54:03;94158.41;;;0.95;100.00
6038;BME280;3047;42.600;23.470;2023-02-16T05:56:30;94133.34;;;0.87;100.00
6038;BME280;3047;42.600;23.470;2023-02-16T05:58:58;94158.97;;;1.18;100.00
6038;BME280;3047;42.600;23.470;2023-02-16T06:01:25;94154.72;;;1.14;100.00
6038;BME280;3047;42.600;23.470;2023-02-16T06:03:52;94163.09;;;1.17;100.00
6038;BME280;3047;42.600;23.470;2023-02-16T06:06:20;94161.38;;;1.15;100.00
6038;BME280;3047;42.600;23.470;2023-02-16T06:08:47;94139.06;;;1.18;100.00
6038;BME280;3047;42.600;23.470;2023-02-16T06:11:14;94163.69;;;1.42;100.00
6038;BME280;3047;42.600;23.470;2023-02-16T06:13:58;94164.91;;;1.59;100.00
6038;BME280;3047;42.600;23.470;2023-02-16T06:16:27;94156.81;;;1.68;100.00
6038;BME280;3047;42.600;23.470;2023-02-16T06:18:55;94175.63;;;1.94;100.00
6038;BME280;3047;42.600;23.470;2023-02-16T06:21:23;94171.94;;;2.15;99.87
6038;BME280;3047;42.600;23.470;2023-02-16T06:23:50;94182.66;;;2.52;99.13
6038;BME280;3047;42.600;23.470;2023-02-16T06:26:17;94183.38;;;2.91;97.36
6038;BME280;3047;42.600;23.470;2023-02-16T06:28:44;94197.25;;;3.24;95.35
6038;BME280;3047;42.600;23.470;2023-02-16T06:31:11;94184.47;;;3.56;93.58
6038;BME280;3047;42.600;23.470;2023-02-16T06:33:38;94139.53;;;3.57;91.17
6038;BME280;3047;42.600;23.470;2023-02-16T06:36:05;94149.22;;;3.39;88.35
6038;BME280;3047;42.600;23.470;2023-02-16T06:38:34;94219.69;;;3.71;88.13
6038;BME280;3047;42.600;23.470;2023-02-16T06:41:01;94216.41;;;3.74;88.87
6038;BME280;3047;42.600;23.470;2023-02-16T06:43:27;94216.63;;;3.89;89.15
6038;BME280;3047;42.600;23.470;2023-02-16T06:45:54;94216.19;;;4.16;87.93
6038;BME280;3047;42.600;23.470;2023-02-16T06:48:21;94185.44;;;4.23;86.69
6038;BME280;3047;42.600;23.470;2023-02-16T06:50:48;94217.78;;;4.76;85.73
6038;BME280;3047;42.600;23.470;2023-02-16T06:53:14;94210.63;;;5.10;84.22
6038;BME280;3047;42.600;23.470;2023-02-16T06:55:42;94225.38;;;5.64;81.76
6038;BME280;3047;42.600;23.470;2023-02-16T06:58:10;94219.84;;;6.07;79.23
6038;BME280;3047;42.600;23.470;2023-02-16T07:00:37;94219.94;;;6.16;77.35
6038;BME280;3047;42.600;23.470;2023-02-16T07:03:04;94211.63;;;6.28;77.70
6038;BME280;3047;42.600;23.470;2023-02-16T07:05:30;94216.75;;;6.44;76.74
6038;BME280;3047;42.600;23.470;2023-02-16T07:07:57;94211.91;;;6.83;74.61
6038;BME280;3047;42.600;23.470;2023-02-16T07:10:24;94216.19;;;7.16;73.64
6038;BME280;3047;42.600;23.470;2023-02-16T07:12:52;94209.56;;;7.38;72.81
6038;BME280;3047;42.600;23.470;2023-02-16T07:15:19;94187.72;;;7.20;72.19
6038;BME280;3047;42.600;23.470;2023-02-16T07:17:45;94206.09;;;6.94;72.31
6038;BME280;3047;42.600;23.470;2023-02-16T07:20:12;94206.88;;;6.87;73.97
6038;BME280;3047;42.600;23.470;2023-02-16T07:22:39;94207.78;;;7.05;72.58
6038;BME280;3047;42.600;23.470;2023-02-16T07:25:06;94205.34;;;7.26;73.11
6038;BME280;3047;42.600;23.470;2023-02-16T07:27:33;94198.66;;;7.40;71.91
6038;BME280;3047;42.600;23.470;2023-02-16T07:30:01;94191.16;;;7.79;71.20
6038;BME280;3047;42.600;23.470;2023-02-16T07:32:28;94170.91;;;8.34;69.32
6038;BME280;3047;42.600;23.470;2023-02-16T07:34:56;94194.16;;;9.17;67.00
6038;BME280;3047;42.600;23.470;2023-02-16T07:37:23;94190.44;;;9.70;64.43
6038;BME280;3047;42.600;23.470;2023-02-16T07:39:50;94179.22;;;10.06;62.67
6038;BME280;3047;42.600;23.470;2023-02-16T07:42:17;94181.78;;;10.02;62.35
6038;BME280;3047;42.600;23.470;2023-02-16T07:44:44;94179.13;;;10.15;62.43
6038;BME280;3047;42.600;23.470;2023-02-16T07:47:12;94187.13;;;9.65;62.89
6038;BME280;3047;42.600;23.470;2023-02-16T07:49:40;94189.31;;;8.71;66.04
6038;BME280;3047;42.600;23.470;2023-02-16T07:52:06;94180.19;;;8.06;68.49
6038;BME280;3047;42.600;23.470;2023-02-16T07:54:33;94180.22;;;7.31;71.17
6038;BME280;3047;42.600;23.470;2023-02-16T07:57:00;94185.91;;;6.70;74.62
6038;BME280;3047;42.600;23.470;2023-02-16T07:59:27;94187.47;;;6.47;76.17
6038;BME280;3047;42.600;23.470;2023-02-16T08:01:53;94168.19;;;6.35;76.92
6038;BME280;3047;42.600;23.470;2023-02-16T08:04:21;94182.31;;;6.24;77.65
6038;BME280;3047;42.600;23.470;2023-02-16T08:06:48;94155.31;;;5.84;78.88
6038;BME280;3047;42.600;23.470;2023-02-16T08:09:16;94126.72;;;5.58;79.86
6038;BME280;3047;42.600;23.470;2023-02-16T08:11:42;94193.81;;;5.88;80.44
6038;BME280;3047;42.600;23.470;2023-02-16T08:14:09;94195.47;;;5.90;81.10
6038;BME280;3047;42.600;23.470;2023-02-16T08:16:36;94191.97;;;5.70;82.39
6038;BME280;3047;42.600;23.470;2023-02-16T08:19:03;94195.22;;;5.55;83.32
6038;BME280;3047;42.600;23.470;2023-02-16T08:21:32;94194.94;;;5.25;85.11
6038;BME280;3047;42.600;23.470;2023-02-16T08:24:01;94148.50;;;4.74;86.49
6038;BME280;3047;42.600;23.470;2023-02-16T08:26:32;94204.56;;;4.86;88.46
6038;BME280;3047;42.600;23.470;2023-02-16T08:28:59;94200.13;;;4.65;90.79
6038;BME280;3047;42.600;23.470;2023-02-16T08:31:28;94206.66;;;4.51;91.84
6038;BME280;3047;42.600;23.470;2023-02-16T08:33:56;94201.56;;;4.45;93.09
6038;BME280;3047;42.600;23.470;2023-02-16T08:36:25;94202.38;;;4.42;93.94
6038;BME280;3047;42.600;23.470;2023-02-16T08:38:55;94189.56;;;4.21;94.97
6038;BME280;3047;42.600;23.470;2023-02-16T08:41:23;94201.34;;;4.28;95.88
6038;BME280;3047;42.600;23.470;2023-02-16T08:43:51;94193.88;;;4.30;95.55
6038;BME280;3047;42.600;23.470;2023-02-16T08:46:17;94204.56;;;4.18;96.77
6038;BME280;3047;42.600;23.470;2023-02-16T08:48:44;94201.19;;;4.16;97.28
6038;BME280;3047;42.600;23.470;2023-02-16T08:51:13;94197.78;;;4.12;97.65
6038;BME280;3047;42.600;23.470;2023-02-16T08:53:40;94187.84;;;4.17;98.75
6038;BME280;3047;42.600;23.470;2023-02-16T08:56:08;94197.94;;;4.25;98.18
6038;BME280;3047;42.600;23.470;2023-02-16T08:58:36;94183.66;;;4.14;98.02
6038;BME280;3047;42.600;23.470;2023-02-16T09:01:03;94196.19;;;4.16;98.54
6038;BME280;3047;42.600;23.470;2023-02-16T09:03:30;94195.44;;;4.23;99.86
6038;BME280;3047;42.600;23.470;2023-02-16T09:06:00;94192.06;;;4.21;99.76
6038;BME280;3047;42.600;23.470;2023-02-16T09:08:28;94205.56;;;4.32;99.30
6038;BME280;3047;42.600;23.470;2023-02-16T09:11:00;94191.13;;;4.11;99.65
6038;BME280;3047;42.600;23.470;2023-02-16T09:13:28;94206.41;;;4.33;99.13
6038;BME280;3047;42.600;23.470;2023-02-16T09:16:00;94177.88;;;4.20;97.83
6038;BME280;3047;42.600;23.470;2023-02-16T09:18:27;94178.75;;;4.22;96.20
6038;BME280;3047;42.600;23.470;2023-02-16T09:20:54;94190.66;;;4.41;95.15
6038;BME280;3047;42.600;23.470;2023-02-16T09:23:21;94191.38;;;4.33;95.42
6038;BME280;3047;42.600;23.470;2023-02-16T09:25:48;94178.81;;;4.27;95.32
6038;BME280;3047;42.600;23.470;2023-02-16T09:28:15;94202.38;;;4.45;95.15
6038;BME280;3047;42.600;23.470;2023-02-16T09:30:43;94197.47;;;4.53;94.97
6038;BME280;3047;42.600;23.470;2023-02-16T09:33:10;94179.03;;;4.42;95.25
6038;BME280;3047;42.600;23.470;2023-02-16T09:35:37;94187.56;;;4.59;93.45
6038;BME280;3047;42.600;23.470;2023-02-16T09:38:04;94129.56;;;4.21;92.86
6038;BME280;3047;42.600;23.470;2023-02-16T09:40:32;94187.72;;;4.73;90.38
6038;BME280;3047;42.600;23.470;2023-02-16T09:43:05;94192.66;;;4.67;90.57
6038;BME280;3047;42.600;23.470;2023-02-16T09:45:38;94180.09;;;4.62;91.03
6038;BME280;3047;42.600;23.470;2023-02-16T09:50:40;94175.09;;;4.62;92.95
6038;BME280;3047;42.600;23.470;2023-02-16T09:53:13;94175.94;;;4.63;94.09
6038;BME280;3047;42.600;23.470;2023-02-16T09:55:51;94172.81;;;4.82;92.05
6038;BME280;3047;42.600;23.470;2023-02-16T09:58:26;94172.03;;;4.89;91.39
6038;BME280;3047;42.600;23.470;2023-02-16T10:01:00;94162.94;;;4.94;91.14
6038;BME280;3047;42.600;23.470;2023-02-16T10:03:41;94156.13;;;4.84;91.52
6038;BME280;3047;42.600;23.470;2023-02-16T10:06:27;94151.31;;;5.04;90.72
6038;BME280;3047;42.600;23.470;2023-02-16T10:08:57;94166.28;;;4.96;92.73
6038;BME280;3047;42.600;23.470;2023-02-16T10:11:29;94156.22;;;4.90;93.31
6038;BME280;3047;42.600;23.470;2023-02-16T10:14:17;94159.78;;;5.15;91.08
6038;BME280;3047;42.600;23.470;2023-02-16T10:16:53;94147.28;;;5.17;89.90
6038;BME280;3047;42.600;23.470;2023-02-16T10:19:25;94154.81;;;5.21;90.85
6038;BME280;3047;42.600;23.470;2023-02-16T10:21:57;94154.06;;;5.29;91.33
6038;BME280;3047;42.600;23.470;2023-02-16T10:24:27;94156.56;;;5.30;91.80
6038;BME280;3047;42.600;23.470;2023-02-16T10:26:58;94139.94;;;5.37;91.89
6038;BME280;3047;42.600;23.470;2023-02-16T10:29:27;94134.16;;;5.44;92.38
6038;BME280;3047;42.600;23.470;2023-02-16T10:32:03;94143.44;;;5.59;90.25
6038;BME280;3047;42.600;23.470;2023-02-16T10:34:46;94147.72;;;5.75;89.13
6038;BME280;3047;42.600;23.470;2023-02-16T10:37:34;94146.91;;;5.79;89.46
6038;BME280;3047;42.600;23.470;2023-02-16T10:40:26;94143.63;;;5.85;88.72
6038;BME280;3047;42.600;23.470;2023-02-16T10:42:59;94141.94;;;5.82;88.22
6038;BME280;3047;42.600;23.470;2023-02-16T10:45:32;94127.81;;;5.93;87.99
6038;BME280;3047;42.600;23.470;2023-02-16T10:48:01;94063.22;;;5.54;89.41
6038;BME280;3047;42.600;23.470;2023-02-16T10:50:32;94115.31;;;5.97;89.55
6038;BME280;3047;42.600;23.470;2023-02-16T10:53:07;94131.28;;;6.18;88.61
6038;BME280;3047;42.600;23.470;2023-02-16T10:55:36;94129.69;;;6.28;88.01
6038;BME280;3047;42.600;23.470;2023-02-16T10:58:02;94117.19;;;6.40;87.56
6038;BME280;3047;42.600;23.470;2023-02-16T11:00:49;94124.75;;;6.56;87.76
6038;BME280;3047;42.600;23.470;2023-02-16T11:03:22;94114.75;;;6.62;87.89
6038;BME280;3047;42.600;23.470;2023-02-16T11:05:51;94103.88;;;6.72;88.79
6038;BME280;3047;42.600;23.470;2023-02-16T11:08:19;94112.31;;;7.05;87.94
6038;BME280;3047;42.600;23.470;2023-02-16T11:10:47;94096.44;;;7.24;89.10
6038;BME280;3047;42.600;23.470;2023-02-16T11:13:34;94100.59;;;7.69;89.14
6038;BME280;3047;42.600;23.470;2023-02-16T11:16:06;94110.59;;;8.11;83.50
6038;BME280;3047;42.600;23.470;2023-02-16T11:18:37;94100.47;;;8.40;84.78
6038;BME280;3047;42.600;23.470;2023-02-16T11:21:07;94070.97;;;8.62;86.49
6038;BME280;3047;42.600;23.470;2023-02-16T11:23:35;94100.13;;;9.06;82.34
6038;BME280;3047;42.600;23.470;2023-02-16T11:26:04;94101.56;;;9.40;75.23
6038;BME280;3047;42.600;23.470;2023-02-16T11:28:35;94092.16;;;9.58;78.28
6038;BME280;3047;42.600;23.470;2023-02-16T11:31:15;94086.91;;;9.82;79.07
6038;BME280;3047;42.600;23.470;2023-02-16T11:33:54;94079.03;;;10.08;76.11
6038;BME280;3047;42.600;23.470;2023-02-16T11:36:28;94084.69;;;10.35;73.31
6038;BME280;3047;42.600;23.470;2023-02-16T11:38:59;94089.56;;;10.49;69.55
6038;BME280;3047;42.600;23.470;2023-02-16T11:41:27;94090.31;;;10.58;70.01
6038;BME280;3047;42.600;23.470;2023-02-16T11:43:55;94081.75;;;10.70;69.23
6038;BME280;3047;42.600;23.470;2023-02-16T11:46:23;94077.38;;;10.80;69.11
6038;BME280;3047;42.600;23.470;2023-02-16T11:48:50;94076.53;;;10.82;68.18
6038;BME280;3047;42.600;23.470;2023-02-16T11:51:31;94078.09;;;10.89;67.63
6038;BME280;3047;42.600;23.470;2023-02-16T11:54:02;94053.72;;;10.85;68.88
6038;BME280;3047;42.600;23.470;2023-02-16T11:56:31;94042.66;;;10.93;70.04
6038;BME280;3047;42.600;23.470;2023-02-16T11:59:14;94069.19;;;11.23;68.93
6038;BME280;3047;42.600;23.470;2023-02-16T12:02:00;94063.13;;;11.33;64.63
6038;BME280;3047;42.600;23.470;2023-02-16T12:04:42;94065.56;;;11.39;63.72
6038;BME280;3047;42.600;23.470;2023-02-16T12:07:22;94062.06;;;11.46;64.25
6038;BME280;3047;42.600;23.470;2023-02-16T12:09:58;94050.13;;;11.56;66.40
6038;BME280;3047;42.600;23.470;2023-02-16T12:12:32;94055.06;;;11.63;61.45
6038;BME280;3047;42.600;23.470;2023-02-16T12:15:09;94028.22;;;11.55;59.90
6038;BME280;3047;42.600;23.470;2023-02-16T12:17:48;94045.41;;;11.82;62.79
6038;BME280;3047;42.600;23.470;2023-02-16T12:20:38;94032.00;;;11.79;58.79
6038;BME280;3047;42.600;23.470;2023-02-16T12:23:24;94021.19;;;11.69;60.18
6038;BME280;3047;42.600;23.470;2023-02-16T12:26:03;94032.88;;;11.76;63.98
6038;BME280;3047;42.600;23.470;2023-02-16T12:28:40;94028.56;;;11.81;60.98
6038;BME280;3047;42.600;23.470;2023-02-16T12:31:14;94035.28;;;11.85;61.08
6038;BME280;3047;42.600;23.470;2023-02-16T12:33:52;94034.25;;;11.96;59.06
6038;BME280;3047;42.600;23.470;2023-02-16T12:36:32;93974.03;;;11.65;59.29
6038;BME280;3047;42.600;23.470;2023-02-16T12:39:11;94017.34;;;11.98;59.77
6038;BME280;3047;42.600;23.470;2023-02-16T12:41:49;94025.78;;;11.97;59.70
6038;BME280;3047;42.600;23.470;2023-02-16T12:44:23;94016.00;;;11.77;56.69
6038;BME280;3047;42.600;23.470;2023-02-16T12:46:56;94006.06;;;11.66;57.01
6038;BME280;3047;42.600;23.470;2023-02-16T12:49:30;94006.44;;;11.45;59.31
6038;BME280;3047;42.600;23.470;2023-02-16T12:52:02;93984.41;;;11.50;58.16
6038;BME280;3047;42.600;23.470;2023-02-16T12:54:37;93989.41;;;11.54;58.46
6038;BME280;3047;42.600;23.470;2023-02-16T12:57:12;93998.59;;;11.58;60.44
6038;BME280;3047;42.600;23.470;2023-02-16T12:59:43;93997.03;;;11.53;57.59
6038;BME280;3047;42.600;23.470;2023-02-16T13:02:17;93995.44;;;11.47;58.68
6038;BME280;3047;42.600;23.470;2023-02-16T13:04:49;93983.09;;;11.30;59.98
6038;BME280;3047;42.600;23.470;2023-02-16T13:07:25;93995.56;;;11.39;58.74
6038;BME280;3047;42.600;23.470;2023-02-16T13:09:59;93982.88;;;11.43;59.40
6038;BME280;3047;42.600;23.470;2023-02-16T13:12:33;93957.81;;;11.30;61.70
6038;BME280;3047;42.600;23.470;2023-02-16T13:15:09;93983.81;;;11.37;63.28
6038;BME280;3047;42.600;23.470;2023-02-16T13:17:40;93978.03;;;11.30;62.00
6038;BME280;3047;42.600;23.470;2023-02-16T13:20:13;93973.03;;;11.26;61.02
6038;BME280;3047;42.600;23.470;2023-02-16T13:23:19;93975.69;;;11.20;61.41
6038;BME280;3047;42.600;23.470;2023-02-16T13:26:14;93967.53;;;11.02;64.19
6038;BME280;3047;42.600;23.470;2023-02-16T13:28:58;93953.31;;;10.95;64.86
6038;BME280;3047;42.600;23.470;2023-02-16T13:31:38;93951.03;;;10.80;62.66
6038;BME280;3047;42.600;23.470;2023-02-16T13:34:24;93953.56;;;10.80;61.48
6038;BME280;3047;42.600;23.470;2023-02-16T13:37:09;93962.91;;;10.75;61.24
6038;BME280;3047;42.600;23.470;2023-02-16T13:39:56;93960.72;;;10.52;61.92
6038;BME280;3047;42.600;23.470;2023-02-16T13:42:58;93957.66;;;10.30;62.32
6038;BME280;3047;42.600;23.470;2023-02-16T13:45:31;93932.00;;;9.94;62.72
6038;BME280;3047;42.600;23.470;2023-02-16T13:48:00;93930.47;;;9.79;64.39